sensor_id;sensor_type;location;lat;lon;timestamp;temperature;humidity
55329;DHT22;41205;44.264;19.884;2022-07-06T00:02:23;563.40;2432.00
55329;DHT22;41205;44.264;19.884;2022-07-06T00:04:49;563.40;2432.00
55329;DHT22;41205;44.264;19.884;2022-07-06T00:07:14;563.50;2432.00
55329;DHT22;41205;44.264;19.884;2022-07-06T00:09:41;563.60;2432.00
55329;DHT22;41205;44.264;19.884;2022-07-06T00:12:06;563.70;2432.00
55329;DHT22;41205;44.264;19.884;2022-07-06T00:14:32;563.70;2432.00
55329;DHT22;41205;44.264;19.884;2022-07-06T00:16:58;563.70;2432.00
55329;DHT22;41205;44.264;19.884;2022-07-06T00:19:23;563.90;2432.00
55329;DHT22;41205;44.264;19.884;2022-07-06T00:21:49;563.80;2432.00
55329;DHT22;41205;44.264;19.884;2022-07-06T00:24:15;563.60;2432.00
55329;DHT22;41205;44.264;19.884;2022-07-06T00:26:43;563.70;2432.00
55329;DHT22;41205;44.264;19.884;2022-07-06T00:29:09;563.70;2432.00
55329;DHT22;41205;44.264;19.884;2022-07-06T00:31:34;563.70;2432.00
55329;DHT22;41205;44.264;19.884;2022-07-06T00:34:00;563.60;2432.00
55329;DHT22;41205;44.264;19.884;2022-07-06T00:36:26;563.70;2432.00
55329;DHT22;41205;44.264;19.884;2022-07-06T00:38:52;563.80;2432.00
55329;DHT22;41205;44.264;19.884;2022-07-06T00:41:18;563.80;2432.00
55329;DHT22;41205;44.264;19.884;2022-07-06T00:43:50;563.90;2432.00
55329;DHT22;41205;44.264;19.884;2022-07-06T00:46:16;563.90;2432.00
55329;DHT22;41205;44.264;19.884;2022-07-06T00:48:41;564.00;2432.00
55329;DHT22;41205;44.264;19.884;2022-07-06T00:51:07;564.00;2432.00
55329;DHT22;41205;44.264;19.884;2022-07-06T00:53:33;564.00;2432.00
55329;DHT22;41205;44.264;19.884;2022-07-06T00:55:59;564.10;2432.00
55329;DHT22;41205;44.264;19.884;2022-07-06T00:58:24;564.10;2432.00
55329;DHT22;41205;44.264;19.884;2022-07-06T01:00:50;564.00;2432.00
55329;DHT22;41205;44.264;19.884;2022-07-06T01:03:15;564.00;2432.00
55329;DHT22;41205;44.264;19.884;2022-07-06T01:05:41;564.10;2432.00
55329;DHT22;41205;44.264;19.884;2022-07-06T01:08:06;564.00;2432.00
55329;DHT22;41205;44.264;19.884;2022-07-06T01:10:32;564.10;2432.00
55329;DHT22;41205;44.264;19.884;2022-07-06T01:12:58;564.10;2432.00
55329;DHT22;41205;44.264;19.884;2022-07-06T01:15:24;564.00;2432.00
55329;DHT22;41205;44.264;19.884;2022-07-06T01:17:50;564.00;2432.00
55329;DHT22;41205;44.264;19.884;2022-07-06T01:20:17;563.80;2432.00
55329;DHT22;41205;44.264;19.884;2022-07-06T01:22:43;563.90;2432.00
55329;DHT22;41205;44.264;19.884;2022-07-06T01:25:09;563.80;2432.00
55329;DHT22;41205;44.264;19.884;2022-07-06T01:27:35;563.70;2432.00
55329;DHT22;41205;44.264;19.884;2022-07-06T01:30:08;563.70;2432.00
55329;DHT22;41205;44.264;19.884;2022-07-06T01:32:34;563.70;2432.00
55329;DHT22;41205;44.264;19.884;2022-07-06T01:35:00;563.70;2432.00
55329;DHT22;41205;44.264;19.884;2022-07-06T01:37:26;563.60;2432.00
55329;DHT22;41205;44.264;19.884;2022-07-06T01:39:51;563.50;2432.00
55329;DHT22;41205;44.264;19.884;2022-07-06T01:42:17;563.50;2432.00
55329;DHT22;41205;44.264;19.884;2022-07-06T01:44:43;563.50;2432.00
55329;DHT22;41205;44.264;19.884;2022-07-06T01:47:10;563.50;2432.00
55329;DHT22;41205;44.264;19.884;2022-07-06T01:49:35;563.40;2432.00
55329;DHT22;41205;44.264;19.884;2022-07-06T01:52:01;563.40;2432.00
55329;DHT22;41205;44.264;19.884;2022-07-06T01:54:27;563.40;2432.00
55329;DHT22;41205;44.264;19.884;2022-07-06T01:56:52;563.40;2432.00
55329;DHT22;41205;44.264;19.884;2022-07-06T01:59:18;563.30;2432.00
55329;DHT22;41205;44.264;19.884;2022-07-06T02:01:43;563.30;2432.00
55329;DHT22;41205;44.264;19.884;2022-07-06T02:04:09;563.30;2432.00
55329;DHT22;41205;44.264;19.884;2022-07-06T02:06:34;563.20;2432.00
55329;DHT22;41205;44.264;19.884;2022-07-06T02:09:00;538.50;2406.40
55329;DHT22;41205;44.264;19.884;2022-07-06T02:11:25;538.50;2406.40
55329;DHT22;41205;44.264;19.884;2022-07-06T02:13:53;538.50;2406.40
55329;DHT22;41205;44.264;19.884;2022-07-06T02:16:18;538.40;2406.40
55329;DHT22;41205;44.264;19.884;2022-07-06T02:18:44;538.40;2406.40
55329;DHT22;41205;44.264;19.884;2022-07-06T02:21:10;538.40;2406.40
55329;DHT22;41205;44.264;19.884;2022-07-06T02:23:35;538.20;2406.40
55329;DHT22;41205;44.264;19.884;2022-07-06T02:26:01;538.20;2406.40
55329;DHT22;41205;44.264;19.884;2022-07-06T02:28:26;538.20;2406.40
55329;DHT22;41205;44.264;19.884;2022-07-06T02:30:52;538.20;2406.40
55329;DHT22;41205;44.264;19.884;2022-07-06T02:33:17;538.20;2406.40
55329;DHT22;41205;44.264;19.884;2022-07-06T02:35:43;538.20;2406.40
55329;DHT22;41205;44.264;19.884;2022-07-06T02:38:09;538.20;2406.40
55329;DHT22;41205;44.264;19.884;2022-07-06T02:40:35;538.20;2406.40
55329;DHT22;41205;44.264;19.884;2022-07-06T02:43:00;538.20;2406.40
55329;DHT22;41205;44.264;19.884;2022-07-06T02:45:26;538.20;2406.40
55329;DHT22;41205;44.264;19.884;2022-07-06T02:47:52;538.10;2406.40
55329;DHT22;41205;44.264;19.884;2022-07-06T02:50:18;538.10;2406.40
55329;DHT22;41205;44.264;19.884;2022-07-06T02:52:44;538.10;2406.40
55329;DHT22;41205;44.264;19.884;2022-07-06T02:55:09;538.10;2406.40
55329;DHT22;41205;44.264;19.884;2022-07-06T02:57:35;538.20;2406.40
55329;DHT22;41205;44.264;19.884;2022-07-06T03:00:00;538.30;2406.40
55329;DHT22;41205;44.264;19.884;2022-07-06T03:02:26;538.20;2406.40
55329;DHT22;41205;44.264;19.884;2022-07-06T03:04:52;538.20;2406.40
55329;DHT22;41205;44.264;19.884;2022-07-06T03:07:18;538.10;2406.40
55329;DHT22;41205;44.264;19.884;2022-07-06T03:09:43;538.10;2406.40
55329;DHT22;41205;44.264;19.884;2022-07-06T03:12:09;538.10;2406.40
55329;DHT22;41205;44.264;19.884;2022-07-06T03:14:34;538.20;2406.40
55329;DHT22;41205;44.264;19.884;2022-07-06T03:17:00;538.20;2406.40
55329;DHT22;41205;44.264;19.884;2022-07-06T03:19:25;538.20;2406.40
55329;DHT22;41205;44.264;19.884;2022-07-06T03:21:51;538.20;2406.40
55329;DHT22;41205;44.264;19.884;2022-07-06T03:24:16;538.10;2406.40
55329;DHT22;41205;44.264;19.884;2022-07-06T03:26:42;538.10;2406.40
55329;DHT22;41205;44.264;19.884;2022-07-06T03:29:08;538.10;2406.40
55329;DHT22;41205;44.264;19.884;2022-07-06T03:31:33;538.20;2406.40
55329;DHT22;41205;44.264;19.884;2022-07-06T03:34:00;538.20;2406.40
55329;DHT22;41205;44.264;19.884;2022-07-06T03:36:25;538.20;2406.40
55329;DHT22;41205;44.264;19.884;2022-07-06T03:38:51;538.30;2406.40
55329;DHT22;41205;44.264;19.884;2022-07-06T03:41:17;538.30;2406.40
55329;DHT22;41205;44.264;19.884;2022-07-06T03:43:42;538.30;2406.40
55329;DHT22;41205;44.264;19.884;2022-07-06T03:46:08;538.40;2406.40
55329;DHT22;41205;44.264;19.884;2022-07-06T03:48:34;538.50;2406.40
55329;DHT22;41205;44.264;19.884;2022-07-06T03:50:59;538.50;2406.40
55329;DHT22;41205;44.264;19.884;2022-07-06T03:53:25;563.30;2432.00
55329;DHT22;41205;44.264;19.884;2022-07-06T03:55:51;563.20;2432.00
55329;DHT22;41205;44.264;19.884;2022-07-06T03:58:35;538.50;2406.40
55329;DHT22;41205;44.264;19.884;2022-07-06T04:01:01;538.50;2406.40
55329;DHT22;41205;44.264;19.884;2022-07-06T04:03:26;538.50;2406.40
55329;DHT22;41205;44.264;19.884;2022-07-06T04:05:52;538.50;2406.40
55329;DHT22;41205;44.264;19.884;2022-07-06T04:08:18;538.50;2406.40
55329;DHT22;41205;44.264;19.884;2022-07-06T04:10:43;538.40;2406.40
55329;DHT22;41205;44.264;19.884;2022-07-06T04:13:09;538.50;2406.40
55329;DHT22;41205;44.264;19.884;2022-07-06T04:15:34;538.40;2406.40
55329;DHT22;41205;44.264;19.884;2022-07-06T04:18:00;538.40;2406.40
55329;DHT22;41205;44.264;19.884;2022-07-06T04:20:25;538.50;2406.40
55329;DHT22;41205;44.264;19.884;2022-07-06T04:22:51;563.30;2432.00
55329;DHT22;41205;44.264;19.884;2022-07-06T04:25:17;563.40;2432.00
55329;DHT22;41205;44.264;19.884;2022-07-06T04:27:43;563.60;2432.00
55329;DHT22;41205;44.264;19.884;2022-07-06T04:30:09;563.80;2432.00
55329;DHT22;41205;44.264;19.884;2022-07-06T04:32:35;564.00;2432.00
55329;DHT22;41205;44.264;19.884;2022-07-06T04:35:01;564.10;2432.00
55329;DHT22;41205;44.264;19.884;2022-07-06T04:37:26;589.10;2432.00
55329;DHT22;41205;44.264;19.884;2022-07-06T04:39:52;640.50;2432.00
55329;DHT22;41205;44.264;19.884;2022-07-06T04:42:17;717.20;2124.80
55329;DHT22;41205;44.264;19.884;2022-07-06T04:44:43;793.60;1843.20
55329;DHT22;41205;44.264;19.884;2022-07-06T04:47:09;819.30;1664.00
55329;DHT22;41205;44.264;19.884;2022-07-06T04:49:34;819.40;1638.40
55329;DHT22;41205;44.264;19.884;2022-07-06T04:52:00;819.80;1587.20
55329;DHT22;41205;44.264;19.884;2022-07-06T04:54:25;870.40;1510.40
55329;DHT22;41205;44.264;19.884;2022-07-06T04:56:51;870.90;1459.20
55329;DHT22;41205;44.264;19.884;2022-07-06T04:59:17;921.80;1382.40
55329;DHT22;41205;44.264;19.884;2022-07-06T05:01:42;947.70;1280.00
55329;DHT22;41205;44.264;19.884;2022-07-06T05:04:08;947.90;1254.40
55329;DHT22;41205;44.264;19.884;2022-07-06T05:06:34;973.20;1228.80
55329;DHT22;41205;44.264;19.884;2022-07-06T05:08:59;973.30;1228.80
55329;DHT22;41205;44.264;19.884;2022-07-06T05:11:26;973.40;1203.20
55329;DHT22;41205;44.264;19.884;2022-07-06T05:13:52;973.20;1203.20
55329;DHT22;41205;44.264;19.884;2022-07-06T05:16:17;998.40;1203.20
55329;DHT22;41205;44.264;19.884;2022-07-06T05:18:43;998.60;1177.60
55329;DHT22;41205;44.264;19.884;2022-07-06T05:21:08;999.10;1152.00
55329;DHT22;41205;44.264;19.884;2022-07-06T05:23:34;1049.60;1126.40
55329;DHT22;41205;44.264;19.884;2022-07-06T05:25:59;1050.30;1075.20
55329;DHT22;41205;44.264;19.884;2022-07-06T05:28:25;1024.90;1075.20
55329;DHT22;41205;44.264;19.884;2022-07-06T05:30:51;1024.40;1100.80
55329;DHT22;41205;44.264;19.884;2022-07-06T05:33:16;999.10;1126.40
55329;DHT22;41205;44.264;19.884;2022-07-06T05:35:42;1024.00;1100.80
55329;DHT22;41205;44.264;19.884;2022-07-06T05:38:08;1024.90;1075.20
55329;DHT22;41205;44.264;19.884;2022-07-06T05:40:33;1075.60;1024.00
55329;DHT22;41205;44.264;19.884;2022-07-06T05:42:59;1075.40;1024.00
55329;DHT22;41205;44.264;19.884;2022-07-06T05:45:24;1050.10;1049.60
55329;DHT22;41205;44.264;19.884;2022-07-06T05:47:50;1050.40;1024.00
55329;DHT22;41205;44.264;19.884;2022-07-06T05:50:34;1101.00;998.40
55329;DHT22;41205;44.264;19.884;2022-07-06T05:53:00;1075.80;972.80
55329;DHT22;41205;44.264;19.884;2022-07-06T05:55:26;1075.20;998.40
55329;DHT22;41205;44.264;19.884;2022-07-06T05:57:52;1024.40;1049.60
55329;DHT22;41205;44.264;19.884;2022-07-06T06:00:19;1050.00;1024.00
55329;DHT22;41205;44.264;19.884;2022-07-06T06:02:45;1049.70;1024.00
55329;DHT22;41205;44.264;19.884;2022-07-06T06:05:11;1075.20;998.40
55329;DHT22;41205;44.264;19.884;2022-07-06T06:07:37;1075.20;998.40
55329;DHT22;41205;44.264;19.884;2022-07-06T06:10:03;1075.90;972.80
55329;DHT22;41205;44.264;19.884;2022-07-06T06:12:29;1075.80;947.20
55329;DHT22;41205;44.264;19.884;2022-07-06T06:14:54;1075.50;972.80
55329;DHT22;41205;44.264;19.884;2022-07-06T06:17:20;1075.90;947.20
55329;DHT22;41205;44.264;19.884;2022-07-06T06:19:45;1101.50;947.20
55329;DHT22;41205;44.264;19.884;2022-07-06T06:22:11;1101.40;947.20
55329;DHT22;41205;44.264;19.884;2022-07-06T06:24:36;1101.30;921.60
55329;DHT22;41205;44.264;19.884;2022-07-06T06:27:02;1101.20;947.20
55329;DHT22;41205;44.264;19.884;2022-07-06T06:29:28;1101.00;947.20
55329;DHT22;41205;44.264;19.884;2022-07-06T06:31:53;1101.00;947.20
55329;DHT22;41205;44.264;19.884;2022-07-06T06:34:19;1101.70;921.60
55329;DHT22;41205;44.264;19.884;2022-07-06T06:36:44;1075.80;921.60
55329;DHT22;41205;44.264;19.884;2022-07-06T06:39:10;1101.10;947.20
55329;DHT22;41205;44.264;19.884;2022-07-06T06:41:35;1075.90;947.20
55329;DHT22;41205;44.264;19.884;2022-07-06T06:44:01;1101.50;921.60
55329;DHT22;41205;44.264;19.884;2022-07-06T06:46:26;1101.00;947.20
55329;DHT22;41205;44.264;19.884;2022-07-06T06:48:52;1101.30;921.60
55329;DHT22;41205;44.264;19.884;2022-07-06T06:51:17;1075.20;972.80
55329;DHT22;41205;44.264;19.884;2022-07-06T06:53:43;1101.10;947.20
55329;DHT22;41205;44.264;19.884;2022-07-06T06:56:09;1101.70;921.60
55329;DHT22;41205;44.264;19.884;2022-07-06T06:58:34;1126.40;947.20
55329;DHT22;41205;44.264;19.884;2022-07-06T07:01:00;1126.50;921.60
55329;DHT22;41205;44.264;19.884;2022-07-06T07:03:25;1127.00;896.00
55329;DHT22;41205;44.264;19.884;2022-07-06T07:05:51;1152.40;870.40
55329;DHT22;41205;44.264;19.884;2022-07-06T07:08:16;1152.20;896.00
55329;DHT22;41205;44.264;19.884;2022-07-06T07:10:42;1152.50;870.40
55329;DHT22;41205;44.264;19.884;2022-07-06T07:13:07;1152.20;870.40
55329;DHT22;41205;44.264;19.884;2022-07-06T07:15:33;1127.30;870.40
55329;DHT22;41205;44.264;19.884;2022-07-06T07:17:58;1152.40;844.80
55329;DHT22;41205;44.264;19.884;2022-07-06T07:20:24;1152.60;844.80
55329;DHT22;41205;44.264;19.884;2022-07-06T07:22:50;1126.90;870.40
55329;DHT22;41205;44.264;19.884;2022-07-06T07:25:16;1127.30;870.40
55329;DHT22;41205;44.264;19.884;2022-07-06T07:27:41;1152.70;844.80
55329;DHT22;41205;44.264;19.884;2022-07-06T07:30:07;1127.00;870.40
55329;DHT22;41205;44.264;19.884;2022-07-06T07:32:33;1050.00;972.80
55329;DHT22;41205;44.264;19.884;2022-07-06T07:34:59;1049.90;972.80
55329;DHT22;41205;44.264;19.884;2022-07-06T07:37:24;1101.00;921.60
55329;DHT22;41205;44.264;19.884;2022-07-06T07:39:50;1075.70;921.60
55329;DHT22;41205;44.264;19.884;2022-07-06T07:42:15;1101.50;921.60
55329;DHT22;41205;44.264;19.884;2022-07-06T07:44:41;1075.40;921.60
55329;DHT22;41205;44.264;19.884;2022-07-06T07:47:06;1075.60;921.60
55329;DHT22;41205;44.264;19.884;2022-07-06T07:49:32;1101.30;896.00
55329;DHT22;41205;44.264;19.884;2022-07-06T07:51:58;1127.30;870.40
55329;DHT22;41205;44.264;19.884;2022-07-06T07:54:23;1127.00;870.40
55329;DHT22;41205;44.264;19.884;2022-07-06T07:56:49;1152.50;844.80
55329;DHT22;41205;44.264;19.884;2022-07-06T07:59:14;1152.60;844.80
55329;DHT22;41205;44.264;19.884;2022-07-06T08:01:40;1152.60;844.80
55329;DHT22;41205;44.264;19.884;2022-07-06T08:04:05;1178.00;819.20
55329;DHT22;41205;44.264;19.884;2022-07-06T08:06:31;1152.10;844.80
55329;DHT22;41205;44.264;19.884;2022-07-06T08:08:57;1152.10;844.80
55329;DHT22;41205;44.264;19.884;2022-07-06T08:11:23;1126.70;896.00
55329;DHT22;41205;44.264;19.884;2022-07-06T08:13:48;1126.40;896.00
55329;DHT22;41205;44.264;19.884;2022-07-06T08:16:14;1126.40;896.00
55329;DHT22;41205;44.264;19.884;2022-07-06T08:18:39;1076.10;896.00
55329;DHT22;41205;44.264;19.884;2022-07-06T08:21:05;1024.00;972.80
55329;DHT22;41205;44.264;19.884;2022-07-06T08:23:31;948.10;998.40
55329;DHT22;41205;44.264;19.884;2022-07-06T08:25:56;896.80;1100.80
55329;DHT22;41205;44.264;19.884;2022-07-06T08:28:22;871.30;1126.40
55329;DHT22;41205;44.264;19.884;2022-07-06T08:30:47;871.00;1177.60
55329;DHT22;41205;44.264;19.884;2022-07-06T08:33:13;845.70;1177.60
55329;DHT22;41205;44.264;19.884;2022-07-06T08:35:39;845.70;1203.20
55329;DHT22;41205;44.264;19.884;2022-07-06T08:38:04;845.10;1254.40
55329;DHT22;41205;44.264;19.884;2022-07-06T08:40:31;844.90;1254.40
55329;DHT22;41205;44.264;19.884;2022-07-06T08:42:58;819.90;1254.40
55329;DHT22;41205;44.264;19.884;2022-07-06T08:45:24;819.90;1254.40
55329;DHT22;41205;44.264;19.884;2022-07-06T08:47:50;819.30;1280.00
55329;DHT22;41205;44.264;19.884;2022-07-06T08:50:16;819.30;1280.00
55329;DHT22;41205;44.264;19.884;2022-07-06T08:52:42;819.20;1280.00
55329;DHT22;41205;44.264;19.884;2022-07-06T08:55:10;794.20;1305.60
55329;DHT22;41205;44.264;19.884;2022-07-06T08:57:37;794.00;1331.20
55329;DHT22;41205;44.264;19.884;2022-07-06T09:00:08;794.20;1331.20
55329;DHT22;41205;44.264;19.884;2022-07-06T09:02:33;794.00;1305.60
55329;DHT22;41205;44.264;19.884;2022-07-06T09:05:00;793.70;1305.60
55329;DHT22;41205;44.264;19.884;2022-07-06T09:07:27;793.70;1331.20
55329;DHT22;41205;44.264;19.884;2022-07-06T09:09:54;768.90;1305.60
55329;DHT22;41205;44.264;19.884;2022-07-06T09:12:19;768.90;1305.60
55329;DHT22;41205;44.264;19.884;2022-07-06T09:14:45;768.90;1305.60
55329;DHT22;41205;44.264;19.884;2022-07-06T09:17:11;793.70;1356.80
55329;DHT22;41205;44.264;19.884;2022-07-06T09:19:37;793.70;1305.60
55329;DHT22;41205;44.264;19.884;2022-07-06T09:22:04;768.70;1254.40
55329;DHT22;41205;44.264;19.884;2022-07-06T09:24:29;768.40;1228.80
55329;DHT22;41205;44.264;19.884;2022-07-06T09:26:57;768.40;1228.80
55329;DHT22;41205;44.264;19.884;2022-07-06T09:29:26;768.40;1228.80
55329;DHT22;41205;44.264;19.884;2022-07-06T09:31:59;768.40;1254.40
55329;DHT22;41205;44.264;19.884;2022-07-06T09:34:39;768.40;1280.00
55329;DHT22;41205;44.264;19.884;2022-07-06T09:37:05;768.40;1254.40
55329;DHT22;41205;44.264;19.884;2022-07-06T09:39:31;768.40;1254.40
55329;DHT22;41205;44.264;19.884;2022-07-06T09:41:57;768.60;1254.40
55329;DHT22;41205;44.264;19.884;2022-07-06T09:44:34;768.40;1280.00
55329;DHT22;41205;44.264;19.884;2022-07-06T09:47:03;768.30;1254.40
55329;DHT22;41205;44.264;19.884;2022-07-06T09:49:28;768.30;1280.00
55329;DHT22;41205;44.264;19.884;2022-07-06T09:51:55;768.20;1280.00
55329;DHT22;41205;44.264;19.884;2022-07-06T09:54:20;768.00;1305.60
55329;DHT22;41205;44.264;19.884;2022-07-06T09:56:46;743.30;1305.60
55329;DHT22;41205;44.264;19.884;2022-07-06T09:59:19;743.30;1305.60
55329;DHT22;41205;44.264;19.884;2022-07-06T10:01:45;743.30;1305.60
55329;DHT22;41205;44.264;19.884;2022-07-06T10:04:11;743.30;1331.20
55329;DHT22;41205;44.264;19.884;2022-07-06T10:06:44;768.30;1305.60
55329;DHT22;41205;44.264;19.884;2022-07-06T10:09:10;768.30;1305.60
55329;DHT22;41205;44.264;19.884;2022-07-06T10:11:39;768.20;1305.60
55329;DHT22;41205;44.264;19.884;2022-07-06T10:14:06;768.30;1305.60
55329;DHT22;41205;44.264;19.884;2022-07-06T10:16:33;768.30;1280.00
55329;DHT22;41205;44.264;19.884;2022-07-06T10:19:00;768.10;1280.00
55329;DHT22;41205;44.264;19.884;2022-07-06T10:21:26;743.30;1331.20
55329;DHT22;41205;44.264;19.884;2022-07-06T10:23:52;743.30;1305.60
55329;DHT22;41205;44.264;19.884;2022-07-06T10:26:19;743.30;1331.20
55329;DHT22;41205;44.264;19.884;2022-07-06T10:28:46;743.30;1305.60
55329;DHT22;41205;44.264;19.884;2022-07-06T10:31:13;768.00;1305.60
55329;DHT22;41205;44.264;19.884;2022-07-06T10:33:39;768.00;1280.00
55329;DHT22;41205;44.264;19.884;2022-07-06T10:36:06;768.00;1280.00
55329;DHT22;41205;44.264;19.884;2022-07-06T10:38:33;743.30;1280.00
55329;DHT22;41205;44.264;19.884;2022-07-06T10:41:03;743.30;1280.00
55329;DHT22;41205;44.264;19.884;2022-07-06T10:43:36;768.00;1305.60
55329;DHT22;41205;44.264;19.884;2022-07-06T10:46:05;768.00;1331.20
55329;DHT22;41205;44.264;19.884;2022-07-06T10:48:34;768.20;1305.60
55329;DHT22;41205;44.264;19.884;2022-07-06T10:51:00;768.40;1305.60
55329;DHT22;41205;44.264;19.884;2022-07-06T10:53:27;768.20;1305.60
55329;DHT22;41205;44.264;19.884;2022-07-06T10:55:54;768.40;1280.00
55329;DHT22;41205;44.264;19.884;2022-07-06T10:58:39;768.60;1305.60
55329;DHT22;41205;44.264;19.884;2022-07-06T11:01:06;768.90;1254.40
55329;DHT22;41205;44.264;19.884;2022-07-06T11:03:38;768.80;1280.00
55329;DHT22;41205;44.264;19.884;2022-07-06T11:06:05;768.60;1305.60
55329;DHT22;41205;44.264;19.884;2022-07-06T11:13:42;768.60;1305.60
55329;DHT22;41205;44.264;19.884;2022-07-06T11:16:08;768.40;1305.60
55329;DHT22;41205;44.264;19.884;2022-07-06T11:18:40;768.30;1305.60
55329;DHT22;41205;44.264;19.884;2022-07-06T11:23:41;768.20;1331.20
55329;DHT22;41205;44.264;19.884;2022-07-06T11:26:07;768.10;1305.60
55329;DHT22;41205;44.264;19.884;2022-07-06T11:28:33;768.30;1280.00
55329;DHT22;41205;44.264;19.884;2022-07-06T11:30:59;768.20;1305.60
55329;DHT22;41205;44.264;19.884;2022-07-06T11:33:28;768.20;1305.60
55329;DHT22;41205;44.264;19.884;2022-07-06T11:36:11;768.00;1331.20
55329;DHT22;41205;44.264;19.884;2022-07-06T11:38:36;768.10;1331.20
55329;DHT22;41205;44.264;19.884;2022-07-06T11:41:02;768.40;1356.80
55329;DHT22;41205;44.264;19.884;2022-07-06T11:43:27;768.40;1331.20
55329;DHT22;41205;44.264;19.884;2022-07-06T11:45:53;768.30;1331.20
55329;DHT22;41205;44.264;19.884;2022-07-06T11:48:19;768.50;1331.20
55329;DHT22;41205;44.264;19.884;2022-07-06T11:50:56;768.10;1356.80
55329;DHT22;41205;44.264;19.884;2022-07-06T11:53:22;768.00;1356.80
55329;DHT22;41205;44.264;19.884;2022-07-06T11:55:47;768.10;1356.80
55329;DHT22;41205;44.264;19.884;2022-07-06T11:58:13;768.30;1356.80
55329;DHT22;41205;44.264;19.884;2022-07-06T12:00:39;768.50;1331.20
55329;DHT22;41205;44.264;19.884;2022-07-06T12:03:04;768.60;1331.20
55329;DHT22;41205;44.264;19.884;2022-07-06T12:05:30;768.90;1331.20
55329;DHT22;41205;44.264;19.884;2022-07-06T12:08:05;793.70;1356.80
55329;DHT22;41205;44.264;19.884;2022-07-06T12:10:34;793.70;1356.80
55329;DHT22;41205;44.264;19.884;2022-07-06T12:13:03;793.70;1331.20
55329;DHT22;41205;44.264;19.884;2022-07-06T12:15:29;793.60;1356.80
55329;DHT22;41205;44.264;19.884;2022-07-06T12:17:54;793.70;1356.80
55329;DHT22;41205;44.264;19.884;2022-07-06T12:20:20;793.90;1331.20
55329;DHT22;41205;44.264;19.884;2022-07-06T12:22:46;793.90;1305.60
55329;DHT22;41205;44.264;19.884;2022-07-06T12:25:11;793.60;1331.20
55329;DHT22;41205;44.264;19.884;2022-07-06T12:27:37;793.80;1356.80
55329;DHT22;41205;44.264;19.884;2022-07-06T12:30:09;793.60;1356.80
55329;DHT22;41205;44.264;19.884;2022-07-06T12:32:35;793.70;1356.80
55329;DHT22;41205;44.264;19.884;2022-07-06T12:35:05;768.90;1356.80
55329;DHT22;41205;44.264;19.884;2022-07-06T12:37:31;768.90;1356.80
55329;DHT22;41205;44.264;19.884;2022-07-06T12:39:56;793.60;1356.80
55329;DHT22;41205;44.264;19.884;2022-07-06T12:42:22;793.60;1382.40
55329;DHT22;41205;44.264;19.884;2022-07-06T12:44:49;793.60;1382.40
55329;DHT22;41205;44.264;19.884;2022-07-06T12:47:18;793.70;1382.40
55329;DHT22;41205;44.264;19.884;2022-07-06T12:49:44;793.60;1382.40
55329;DHT22;41205;44.264;19.884;2022-07-06T12:52:12;768.50;1331.20
55329;DHT22;41205;44.264;19.884;2022-07-06T12:54:42;768.90;1331.20
55329;DHT22;41205;44.264;19.884;2022-07-06T12:57:09;768.60;1305.60
55329;DHT22;41205;44.264;19.884;2022-07-06T12:59:36;768.70;1305.60
55329;DHT22;41205;44.264;19.884;2022-07-06T13:02:03;768.90;1331.20
55329;DHT22;41205;44.264;19.884;2022-07-06T13:04:29;793.60;1331.20
55329;DHT22;41205;44.264;19.884;2022-07-06T13:06:57;793.70;1331.20
55329;DHT22;41205;44.264;19.884;2022-07-06T13:09:23;794.00;1356.80
55329;DHT22;41205;44.264;19.884;2022-07-06T13:11:48;794.10;1331.20
55329;DHT22;41205;44.264;19.884;2022-07-06T13:14:14;794.10;1305.60
55329;DHT22;41205;44.264;19.884;2022-07-06T13:16:40;794.00;1305.60
55329;DHT22;41205;44.264;19.884;2022-07-06T13:19:06;793.90;1305.60
55329;DHT22;41205;44.264;19.884;2022-07-06T13:21:32;793.60;1305.60
55329;DHT22;41205;44.264;19.884;2022-07-06T13:23:58;793.70;1280.00
55329;DHT22;41205;44.264;19.884;2022-07-06T13:26:23;793.70;1280.00
55329;DHT22;41205;44.264;19.884;2022-07-06T13:28:49;768.60;1228.80
55329;DHT22;41205;44.264;19.884;2022-07-06T13:31:14;768.70;1254.40
55329;DHT22;41205;44.264;19.884;2022-07-06T13:33:40;768.60;1254.40
55329;DHT22;41205;44.264;19.884;2022-07-06T13:36:05;768.70;1254.40
55329;DHT22;41205;44.264;19.884;2022-07-06T13:38:31;793.60;1280.00
55329;DHT22;41205;44.264;19.884;2022-07-06T13:40:57;793.60;1305.60
55329;DHT22;41205;44.264;19.884;2022-07-06T13:43:22;768.60;1228.80
55329;DHT22;41205;44.264;19.884;2022-07-06T13:45:48;768.40;1254.40
55329;DHT22;41205;44.264;19.884;2022-07-06T13:48:14;768.50;1254.40
55329;DHT22;41205;44.264;19.884;2022-07-06T13:50:39;768.50;1254.40
55329;DHT22;41205;44.264;19.884;2022-07-06T13:53:05;768.60;1254.40
55329;DHT22;41205;44.264;19.884;2022-07-06T13:55:31;768.70;1280.00
55329;DHT22;41205;44.264;19.884;2022-07-06T13:57:57;768.90;1280.00
55329;DHT22;41205;44.264;19.884;2022-07-06T14:00:22;768.70;1254.40
55329;DHT22;41205;44.264;19.884;2022-07-06T14:02:48;768.90;1280.00
55329;DHT22;41205;44.264;19.884;2022-07-06T14:05:14;768.90;1254.40
55329;DHT22;41205;44.264;19.884;2022-07-06T14:07:39;768.90;1254.40
55329;DHT22;41205;44.264;19.884;2022-07-06T14:10:05;768.90;1228.80
55329;DHT22;41205;44.264;19.884;2022-07-06T14:12:31;768.90;1280.00
55329;DHT22;41205;44.264;19.884;2022-07-06T14:14:56;768.90;1254.40
55329;DHT22;41205;44.264;19.884;2022-07-06T14:17:22;768.90;1254.40
55329;DHT22;41205;44.264;19.884;2022-07-06T14:19:48;768.90;1254.40
55329;DHT22;41205;44.264;19.884;2022-07-06T14:22:14;768.90;1254.40
55329;DHT22;41205;44.264;19.884;2022-07-06T14:24:39;793.60;1280.00
55329;DHT22;41205;44.264;19.884;2022-07-06T14:27:05;768.90;1254.40
55329;DHT22;41205;44.264;19.884;2022-07-06T14:29:30;768.60;1254.40
55329;DHT22;41205;44.264;19.884;2022-07-06T14:31:56;768.30;1280.00
55329;DHT22;41205;44.264;19.884;2022-07-06T14:34:22;768.40;1280.00
55329;DHT22;41205;44.264;19.884;2022-07-06T14:36:47;768.50;1280.00